RJAW/IWO METAR and TAF weather

Enter ICAO airport designator
Station Type Date Time Source
RJAW METAR 2020/11/28 18:00 UTC NOAA

RJAW 281800Z 05011KT 9999 SCT015 SCT230 24/19 Q1014 RMK 3CU015 A2997


Station Type Date Time Source
RJAW Decoded METAR 2020/11/28 18:00 UTC NOAA

Iwojima, Japan (RJAW) 24-47N 141-19E 116M
Nov 28, 2020 - 01:00 PM EST / 2020.11.28 1800 UTC
Wind: from the NE (050 degrees) at 13 MPH (11 KT):0
Visibility: greater than 7 mile(s):0
Sky conditions: partly cloudy
Temperature: 75 F (24 C)
Dew Point: 66 F (19 C)
Relative Humidity: 73%
Pressure (altimeter): 29.94 in. Hg (1014 hPa)
ob: RJAW 281800Z 05011KT 9999 SCT015 SCT230 24/19 Q1014 RMK 3CU015 A2997
cycle: 18

Station Type Date Time Source
RJAW TAF UTC NOAA

Error!

Example: see airport list